Terminal Aerodrome Forecast
Issued by NWS

Home | Current Version | Previous Version | Graphics & Text | Print | Product List | Glossary Off
Versions: 1 2 3 4 5 6 7 8 9 10 11 12 13 14 15 16

000
FTUS43 KDDC 231737
TAFHYS
TAF
KHYS 231737Z 2318/2418 13004KT P6SM FEW130 PROB30 2412/2415 4SM
      -SHRA OVC025
     FM241500 34010KT P6SM OVC045 PROB30 2415/2417 4SM -SHRA OVC025
     FM241700 34011KT P6SM OVC030 PROB30 2417/2418 4SM -SHRA OVC015=

USA.gov is the U.S. government's official web portal to all federal, state and local government web resources and services.